Terminal Aerodrome Forecast
Issued by NWS

Home | Current Version | Previous Version | Text Only | Print | Product List | Glossary On
Versions: 1 2 3 4 5 6 7 8 9 10 11 12 13
000
FTUS45 KFGZ 200541
TAFPRC
TAF
KPRC 200541Z 2006/2106 15008KT P6SM FEW080 SCT250
     FM201200 19015KT P6SM OVC050
      TEMPO 2013/2016 P6SM -RA OVC040
     FM201600 19015G25KT 6SM -RA OVC030
     FM201800 20015KT 6SM -SHRA BR OVC025
     FM202100 21013KT 3SM -SNRA OVC020=

USA.gov is the U.S. government's official web portal to all federal, state and local government web resources and services.